sensor_id;sensor_type;location;lat;lon;timestamp;temperature;humidity
29539;DHT22;16482;51.046;4.498;2023-06-24T00:01:39;26.30;49.30
29539;DHT22;16482;51.046;4.498;2023-06-24T00:04:05;26.30;49.20
29539;DHT22;16482;51.046;4.498;2023-06-24T00:06:31;26.30;49.30
29539;DHT22;16482;51.046;4.498;2023-06-24T00:08:57;26.30;49.30
29539;DHT22;16482;51.046;4.498;2023-06-24T00:11:27;26.30;49.30
29539;DHT22;16482;51.046;4.498;2023-06-24T00:17:18;26.30;49.10
29539;DHT22;16482;51.046;4.498;2023-06-24T00:19:44;26.30;49.20
29539;DHT22;16482;51.046;4.498;2023-06-24T00:22:10;26.20;49.20
29539;DHT22;16482;51.046;4.498;2023-06-24T00:24:36;26.20;49.20
29539;DHT22;16482;51.046;4.498;2023-06-24T00:27:01;26.30;49.20
29539;DHT22;16482;51.046;4.498;2023-06-24T00:29:30;26.30;49.20
29539;DHT22;16482;51.046;4.498;2023-06-24T00:31:55;26.30;49.20
29539;DHT22;16482;51.046;4.498;2023-06-24T00:34:21;26.20;49.10
29539;DHT22;16482;51.046;4.498;2023-06-24T00:36:49;26.20;49.10
29539;DHT22;16482;51.046;4.498;2023-06-24T00:39:15;26.20;49.10
29539;DHT22;16482;51.046;4.498;2023-06-24T00:41:42;26.30;49.20
29539;DHT22;16482;51.046;4.498;2023-06-24T00:44:08;26.20;49.10
29539;DHT22;16482;51.046;4.498;2023-06-24T00:46:34;26.20;49.10
29539;DHT22;16482;51.046;4.498;2023-06-24T00:49:01;26.20;49.00
29539;DHT22;16482;51.046;4.498;2023-06-24T00:51:28;26.20;49.00
29539;DHT22;16482;51.046;4.498;2023-06-24T00:53:59;26.20;49.00
29539;DHT22;16482;51.046;4.498;2023-06-24T00:56:30;26.20;49.00
29539;DHT22;16482;51.046;4.498;2023-06-24T00:58:58;26.20;48.90
29539;DHT22;16482;51.046;4.498;2023-06-24T01:01:32;26.20;48.90
29539;DHT22;16482;51.046;4.498;2023-06-24T01:03:59;26.20;48.90
29539;DHT22;16482;51.046;4.498;2023-06-24T01:06:26;26.20;49.00
29539;DHT22;16482;51.046;4.498;2023-06-24T01:08:58;26.20;48.90
29539;DHT22;16482;51.046;4.498;2023-06-24T01:11:26;26.20;49.00
29539;DHT22;16482;51.046;4.498;2023-06-24T01:13:52;26.20;48.90
29539;DHT22;16482;51.046;4.498;2023-06-24T01:16:26;26.20;49.00
29539;DHT22;16482;51.046;4.498;2023-06-24T01:18:59;26.20;48.90
29539;DHT22;16482;51.046;4.498;2023-06-24T01:27:24;26.10;48.90
29539;DHT22;16482;51.046;4.498;2023-06-24T01:32:47;26.20;48.90
29539;DHT22;16482;51.046;4.498;2023-06-24T01:35:25;26.10;48.90
29539;DHT22;16482;51.046;4.498;2023-06-24T01:37:55;26.20;48.90
29539;DHT22;16482;51.046;4.498;2023-06-24T01:40:32;26.10;48.90
29539;DHT22;16482;51.046;4.498;2023-06-24T01:43:01;26.20;48.90
29539;DHT22;16482;51.046;4.498;2023-06-24T01:45:35;26.10;48.80
29539;DHT22;16482;51.046;4.498;2023-06-24T01:48:07;26.10;48.80
29539;DHT22;16482;51.046;4.498;2023-06-24T01:50:36;26.10;48.70
29539;DHT22;16482;51.046;4.498;2023-06-24T01:53:07;26.20;48.80
29539;DHT22;16482;51.046;4.498;2023-06-24T01:55:35;26.20;48.70
29539;DHT22;16482;51.046;4.498;2023-06-24T01:58:06;26.10;48.70
29539;DHT22;16482;51.046;4.498;2023-06-24T02:00:44;26.10;48.60
29539;DHT22;16482;51.046;4.498;2023-06-24T02:03:28;26.10;48.60
29539;DHT22;16482;51.046;4.498;2023-06-24T02:06:11;26.10;48.50
29539;DHT22;16482;51.046;4.498;2023-06-24T02:08:45;26.10;48.50
29539;DHT22;16482;51.046;4.498;2023-06-24T02:11:31;26.10;48.50
29539;DHT22;16482;51.046;4.498;2023-06-24T02:14:01;26.10;48.40
29539;DHT22;16482;51.046;4.498;2023-06-24T02:16:29;26.10;48.50
29539;DHT22;16482;51.046;4.498;2023-06-24T02:18:56;26.10;48.40
29539;DHT22;16482;51.046;4.498;2023-06-24T02:21:23;26.10;48.40
29539;DHT22;16482;51.046;4.498;2023-06-24T02:23:51;26.10;48.30
29539;DHT22;16482;51.046;4.498;2023-06-24T02:26:18;26.10;48.20
29539;DHT22;16482;51.046;4.498;2023-06-24T02:29:24;26.10;48.10
29539;DHT22;16482;51.046;4.498;2023-06-24T02:31:50;26.10;48.00
29539;DHT22;16482;51.046;4.498;2023-06-24T02:34:15;26.10;48.10
29539;DHT22;16482;51.046;4.498;2023-06-24T02:40:05;26.10;47.90
29539;DHT22;16482;51.046;4.498;2023-06-24T02:42:32;26.10;48.00
29539;DHT22;16482;51.046;4.498;2023-06-24T02:44:58;26.10;48.00
29539;DHT22;16482;51.046;4.498;2023-06-24T02:47:25;26.10;47.90
29539;DHT22;16482;51.046;4.498;2023-06-24T02:49:51;26.10;47.80
29539;DHT22;16482;51.046;4.498;2023-06-24T02:52:18;26.10;47.80
29539;DHT22;16482;51.046;4.498;2023-06-24T02:54:45;26.10;47.70
29539;DHT22;16482;51.046;4.498;2023-06-24T02:57:11;26.10;47.60
29539;DHT22;16482;51.046;4.498;2023-06-24T02:59:39;26.10;47.60
29539;DHT22;16482;51.046;4.498;2023-06-24T03:02:05;26.10;47.50
29539;DHT22;16482;51.046;4.498;2023-06-24T03:04:32;26.10;47.50
29539;DHT22;16482;51.046;4.498;2023-06-24T03:07:01;26.00;47.40
29539;DHT22;16482;51.046;4.498;2023-06-24T03:09:28;26.10;47.30
29539;DHT22;16482;51.046;4.498;2023-06-24T03:11:56;26.10;47.40
29539;DHT22;16482;51.046;4.498;2023-06-24T03:14:22;26.10;47.30
29539;DHT22;16482;51.046;4.498;2023-06-24T03:16:48;26.00;47.20
29539;DHT22;16482;51.046;4.498;2023-06-24T03:19:13;26.10;47.20
29539;DHT22;16482;51.046;4.498;2023-06-24T03:21:39;26.00;47.10
29539;DHT22;16482;51.046;4.498;2023-06-24T03:24:05;26.00;47.00
29539;DHT22;16482;51.046;4.498;2023-06-24T03:26:41;26.00;47.00
29539;DHT22;16482;51.046;4.498;2023-06-24T03:29:07;26.00;46.90
29539;DHT22;16482;51.046;4.498;2023-06-24T03:31:33;26.10;46.90
29539;DHT22;16482;51.046;4.498;2023-06-24T03:33:59;26.00;46.80
29539;DHT22;16482;51.046;4.498;2023-06-24T03:36:25;26.00;46.70
29539;DHT22;16482;51.046;4.498;2023-06-24T03:38:51;26.00;46.70
29539;DHT22;16482;51.046;4.498;2023-06-24T03:41:17;26.00;46.70
29539;DHT22;16482;51.046;4.498;2023-06-24T03:43:44;26.00;46.70
29539;DHT22;16482;51.046;4.498;2023-06-24T03:46:11;26.00;46.70
29539;DHT22;16482;51.046;4.498;2023-06-24T03:49:15;26.00;46.60
29539;DHT22;16482;51.046;4.498;2023-06-24T03:51:42;26.00;46.40
29539;DHT22;16482;51.046;4.498;2023-06-24T03:54:09;26.00;46.50
29539;DHT22;16482;51.046;4.498;2023-06-24T03:56:35;26.00;46.40
29539;DHT22;16482;51.046;4.498;2023-06-24T03:59:02;26.00;46.40
29539;DHT22;16482;51.046;4.498;2023-06-24T04:01:27;26.00;46.40
29539;DHT22;16482;51.046;4.498;2023-06-24T04:03:57;26.00;46.30
29539;DHT22;16482;51.046;4.498;2023-06-24T04:06:23;26.00;46.30
29539;DHT22;16482;51.046;4.498;2023-06-24T04:08:49;26.00;46.30
29539;DHT22;16482;51.046;4.498;2023-06-24T04:11:18;26.00;46.30
29539;DHT22;16482;51.046;4.498;2023-06-24T04:13:47;26.00;46.20
29539;DHT22;16482;51.046;4.498;2023-06-24T04:16:14;26.00;46.20
29539;DHT22;16482;51.046;4.498;2023-06-24T04:18:40;26.00;46.80
29539;DHT22;16482;51.046;4.498;2023-06-24T04:21:07;26.00;46.20
29539;DHT22;16482;51.046;4.498;2023-06-24T04:23:36;26.00;46.20
29539;DHT22;16482;51.046;4.498;2023-06-24T04:26:02;26.00;46.10
29539;DHT22;16482;51.046;4.498;2023-06-24T04:28:28;26.00;46.10
29539;DHT22;16482;51.046;4.498;2023-06-24T04:30:55;26.00;46.00
29539;DHT22;16482;51.046;4.498;2023-06-24T04:33:21;26.00;46.00
29539;DHT22;16482;51.046;4.498;2023-06-24T04:35:48;26.00;45.90
29539;DHT22;16482;51.046;4.498;2023-06-24T04:38:14;26.00;45.90
29539;DHT22;16482;51.046;4.498;2023-06-24T04:40:44;26.00;45.90
29539;DHT22;16482;51.046;4.498;2023-06-24T04:43:10;26.00;45.90
29539;DHT22;16482;51.046;4.498;2023-06-24T04:45:36;26.00;45.90
29539;DHT22;16482;51.046;4.498;2023-06-24T04:48:01;26.00;45.90
29539;DHT22;16482;51.046;4.498;2023-06-24T04:50:27;26.00;45.80
29539;DHT22;16482;51.046;4.498;2023-06-24T04:52:56;26.00;45.80
29539;DHT22;16482;51.046;4.498;2023-06-24T04:55:24;26.00;45.80
29539;DHT22;16482;51.046;4.498;2023-06-24T04:57:51;26.00;45.80
29539;DHT22;16482;51.046;4.498;2023-06-24T05:00:20;25.90;45.70
29539;DHT22;16482;51.046;4.498;2023-06-24T05:02:48;25.90;45.70
29539;DHT22;16482;51.046;4.498;2023-06-24T05:05:15;26.00;45.70
29539;DHT22;16482;51.046;4.498;2023-06-24T05:07:40;25.90;45.60
29539;DHT22;16482;51.046;4.498;2023-06-24T05:10:06;26.00;45.60
29539;DHT22;16482;51.046;4.498;2023-06-24T05:12:32;26.00;45.60
29539;DHT22;16482;51.046;4.498;2023-06-24T05:14:58;26.00;45.60
29539;DHT22;16482;51.046;4.498;2023-06-24T05:17:26;26.00;45.50
29539;DHT22;16482;51.046;4.498;2023-06-24T05:19:51;26.00;45.50
29539;DHT22;16482;51.046;4.498;2023-06-24T05:22:17;26.00;45.50
29539;DHT22;16482;51.046;4.498;2023-06-24T05:24:45;26.00;45.50
29539;DHT22;16482;51.046;4.498;2023-06-24T05:27:11;26.00;45.60
29539;DHT22;16482;51.046;4.498;2023-06-24T05:29:37;26.00;45.60
29539;DHT22;16482;51.046;4.498;2023-06-24T05:32:03;25.90;45.60
29539;DHT22;16482;51.046;4.498;2023-06-24T05:34:32;26.00;45.60
29539;DHT22;16482;51.046;4.498;2023-06-24T05:37:01;26.00;45.60
29539;DHT22;16482;51.046;4.498;2023-06-24T05:39:27;26.00;45.50
29539;DHT22;16482;51.046;4.498;2023-06-24T05:41:56;26.00;45.60
29539;DHT22;16482;51.046;4.498;2023-06-24T05:44:22;26.00;45.50
29539;DHT22;16482;51.046;4.498;2023-06-24T05:47:16;26.00;45.50
29539;DHT22;16482;51.046;4.498;2023-06-24T05:49:42;26.00;45.50
29539;DHT22;16482;51.046;4.498;2023-06-24T05:52:11;26.00;46.10
29539;DHT22;16482;51.046;4.498;2023-06-24T05:54:37;26.00;45.50
29539;DHT22;16482;51.046;4.498;2023-06-24T05:57:03;26.00;45.50
29539;DHT22;16482;51.046;4.498;2023-06-24T05:59:34;26.00;45.50
29539;DHT22;16482;51.046;4.498;2023-06-24T06:02:00;26.00;45.50
29539;DHT22;16482;51.046;4.498;2023-06-24T06:04:28;26.00;45.60
29539;DHT22;16482;51.046;4.498;2023-06-24T06:06:53;26.00;45.60
29539;DHT22;16482;51.046;4.498;2023-06-24T06:09:21;26.00;45.60
29539;DHT22;16482;51.046;4.498;2023-06-24T06:11:47;26.00;45.60
29539;DHT22;16482;51.046;4.498;2023-06-24T06:14:13;26.00;45.60
29539;DHT22;16482;51.046;4.498;2023-06-24T06:16:39;26.00;45.60
29539;DHT22;16482;51.046;4.498;2023-06-24T06:19:05;26.00;45.70
29539;DHT22;16482;51.046;4.498;2023-06-24T06:21:31;26.00;45.70
29539;DHT22;16482;51.046;4.498;2023-06-24T06:24:10;26.00;45.70
29539;DHT22;16482;51.046;4.498;2023-06-24T06:26:42;26.00;45.80
29539;DHT22;16482;51.046;4.498;2023-06-24T06:29:09;26.00;45.70
29539;DHT22;16482;51.046;4.498;2023-06-24T06:31:35;26.00;45.80
29539;DHT22;16482;51.046;4.498;2023-06-24T06:34:01;26.00;45.80
29539;DHT22;16482;51.046;4.498;2023-06-24T06:36:27;26.00;45.90
29539;DHT22;16482;51.046;4.498;2023-06-24T06:38:53;25.90;46.00
29539;DHT22;16482;51.046;4.498;2023-06-24T06:41:19;25.80;46.00
29539;DHT22;16482;51.046;4.498;2023-06-24T06:43:56;25.70;46.10
29539;DHT22;16482;51.046;4.498;2023-06-24T06:46:22;25.60;46.20
29539;DHT22;16482;51.046;4.498;2023-06-24T06:48:47;25.50;46.40
29539;DHT22;16482;51.046;4.498;2023-06-24T06:51:13;25.60;46.40
29539;DHT22;16482;51.046;4.498;2023-06-24T06:53:41;25.50;46.40
29539;DHT22;16482;51.046;4.498;2023-06-24T06:56:08;25.60;46.50
29539;DHT22;16482;51.046;4.498;2023-06-24T06:58:36;25.60;46.60
29539;DHT22;16482;51.046;4.498;2023-06-24T07:01:04;25.60;46.50
29539;DHT22;16482;51.046;4.498;2023-06-24T07:03:34;25.60;46.60
29539;DHT22;16482;51.046;4.498;2023-06-24T07:06:00;25.60;46.70
29539;DHT22;16482;51.046;4.498;2023-06-24T07:08:26;25.60;46.60
29539;DHT22;16482;51.046;4.498;2023-06-24T07:10:52;25.60;46.60
29539;DHT22;16482;51.046;4.498;2023-06-24T07:13:18;25.60;46.50
29539;DHT22;16482;51.046;4.498;2023-06-24T07:15:44;25.60;46.50
29539;DHT22;16482;51.046;4.498;2023-06-24T07:18:10;25.70;46.60
29539;DHT22;16482;51.046;4.498;2023-06-24T07:20:37;25.70;46.70
29539;DHT22;16482;51.046;4.498;2023-06-24T07:23:02;25.60;46.80
29539;DHT22;16482;51.046;4.498;2023-06-24T07:25:30;25.70;46.60
29539;DHT22;16482;51.046;4.498;2023-06-24T07:27:56;25.70;46.60
29539;DHT22;16482;51.046;4.498;2023-06-24T07:30:22;25.80;46.70
29539;DHT22;16482;51.046;4.498;2023-06-24T07:32:48;25.70;46.80
29539;DHT22;16482;51.046;4.498;2023-06-24T07:35:14;25.80;46.80
29539;DHT22;16482;51.046;4.498;2023-06-24T07:37:41;25.70;46.80
29539;DHT22;16482;51.046;4.498;2023-06-24T07:40:07;25.70;46.80
29539;DHT22;16482;51.046;4.498;2023-06-24T07:42:34;25.70;47.00
29539;DHT22;16482;51.046;4.498;2023-06-24T07:45:00;25.70;47.30
29539;DHT22;16482;51.046;4.498;2023-06-24T07:47:26;25.60;47.40
29539;DHT22;16482;51.046;4.498;2023-06-24T07:49:52;25.60;47.50
29539;DHT22;16482;51.046;4.498;2023-06-24T07:52:17;25.60;47.50
29539;DHT22;16482;51.046;4.498;2023-06-24T07:54:44;25.60;47.50
29539;DHT22;16482;51.046;4.498;2023-06-24T07:57:10;25.60;47.40
29539;DHT22;16482;51.046;4.498;2023-06-24T07:59:36;25.60;47.60
29539;DHT22;16482;51.046;4.498;2023-06-24T08:02:02;25.60;47.70
29539;DHT22;16482;51.046;4.498;2023-06-24T08:04:28;25.50;47.60
29539;DHT22;16482;51.046;4.498;2023-06-24T08:06:54;25.50;47.60
29539;DHT22;16482;51.046;4.498;2023-06-24T08:09:20;25.50;47.40
29539;DHT22;16482;51.046;4.498;2023-06-24T08:11:46;25.50;47.30
29539;DHT22;16482;51.046;4.498;2023-06-24T08:14:12;25.50;47.40
29539;DHT22;16482;51.046;4.498;2023-06-24T08:16:37;25.50;47.30
29539;DHT22;16482;51.046;4.498;2023-06-24T08:19:03;25.50;47.30
29539;DHT22;16482;51.046;4.498;2023-06-24T08:21:29;25.50;47.20
29539;DHT22;16482;51.046;4.498;2023-06-24T08:23:55;25.50;47.20
29539;DHT22;16482;51.046;4.498;2023-06-24T08:26:22;25.50;47.20
29539;DHT22;16482;51.046;4.498;2023-06-24T08:28:48;25.50;47.20
29539;DHT22;16482;51.046;4.498;2023-06-24T08:31:14;25.50;47.10
29539;DHT22;16482;51.046;4.498;2023-06-24T08:33:44;25.50;46.80
29539;DHT22;16482;51.046;4.498;2023-06-24T08:36:11;25.60;46.70
29539;DHT22;16482;51.046;4.498;2023-06-24T08:38:37;25.60;46.60
29539;DHT22;16482;51.046;4.498;2023-06-24T08:41:03;25.60;46.60
29539;DHT22;16482;51.046;4.498;2023-06-24T08:43:29;25.60;46.50
29539;DHT22;16482;51.046;4.498;2023-06-24T08:45:55;25.70;46.50
29539;DHT22;16482;51.046;4.498;2023-06-24T08:48:21;25.60;46.40
29539;DHT22;16482;51.046;4.498;2023-06-24T08:50:51;25.70;46.50
29539;DHT22;16482;51.046;4.498;2023-06-24T08:53:18;25.70;46.40
29539;DHT22;16482;51.046;4.498;2023-06-24T08:55:46;25.70;46.30
29539;DHT22;16482;51.046;4.498;2023-06-24T08:58:15;25.70;46.30
29539;DHT22;16482;51.046;4.498;2023-06-24T09:00:41;25.70;46.10
29539;DHT22;16482;51.046;4.498;2023-06-24T09:03:08;25.70;46.10
29539;DHT22;16482;51.046;4.498;2023-06-24T09:05:34;25.70;46.10
29539;DHT22;16482;51.046;4.498;2023-06-24T09:08:00;25.80;45.90
29539;DHT22;16482;51.046;4.498;2023-06-24T09:10:33;25.80;45.90
29539;DHT22;16482;51.046;4.498;2023-06-24T09:13:04;25.80;45.90
29539;DHT22;16482;51.046;4.498;2023-06-24T09:15:34;25.80;45.90
29539;DHT22;16482;51.046;4.498;2023-06-24T09:18:00;25.80;46.20
29539;DHT22;16482;51.046;4.498;2023-06-24T09:20:30;25.80;46.20
29539;DHT22;16482;51.046;4.498;2023-06-24T09:23:02;25.90;46.20
29539;DHT22;16482;51.046;4.498;2023-06-24T09:25:28;25.90;46.20
29539;DHT22;16482;51.046;4.498;2023-06-24T09:28:01;25.90;46.20
29539;DHT22;16482;51.046;4.498;2023-06-24T09:30:27;25.90;46.20
29539;DHT22;16482;51.046;4.498;2023-06-24T09:32:54;25.90;46.20
29539;DHT22;16482;51.046;4.498;2023-06-24T09:35:35;25.90;46.10
29539;DHT22;16482;51.046;4.498;2023-06-24T09:38:01;25.90;46.00
29539;DHT22;16482;51.046;4.498;2023-06-24T09:40:27;25.90;45.90
29539;DHT22;16482;51.046;4.498;2023-06-24T09:42:55;25.90;45.70
29539;DHT22;16482;51.046;4.498;2023-06-24T09:45:25;26.00;45.60
29539;DHT22;16482;51.046;4.498;2023-06-24T09:47:54;26.00;45.50
29539;DHT22;16482;51.046;4.498;2023-06-24T09:50:23;26.00;45.50
29539;DHT22;16482;51.046;4.498;2023-06-24T09:52:52;26.00;45.50
29539;DHT22;16482;51.046;4.498;2023-06-24T09:55:19;26.00;45.40
29539;DHT22;16482;51.046;4.498;2023-06-24T09:57:50;26.00;45.30
29539;DHT22;16482;51.046;4.498;2023-06-24T10:00:19;26.00;45.20
29539;DHT22;16482;51.046;4.498;2023-06-24T10:02:45;26.00;45.20
29539;DHT22;16482;51.046;4.498;2023-06-24T10:05:13;26.00;45.00
29539;DHT22;16482;51.046;4.498;2023-06-24T10:07:40;26.00;44.90
29539;DHT22;16482;51.046;4.498;2023-06-24T10:10:07;26.00;44.70
29539;DHT22;16482;51.046;4.498;2023-06-24T10:12:35;26.00;44.70
29539;DHT22;16482;51.046;4.498;2023-06-24T10:15:02;26.00;44.40
29539;DHT22;16482;51.046;4.498;2023-06-24T10:17:30;26.10;44.40
29539;DHT22;16482;51.046;4.498;2023-06-24T10:19:56;26.00;44.00
29539;DHT22;16482;51.046;4.498;2023-06-24T10:22:23;26.10;43.90
29539;DHT22;16482;51.046;4.498;2023-06-24T10:24:54;26.10;43.90
29539;DHT22;16482;51.046;4.498;2023-06-24T10:27:23;26.10;43.70
29539;DHT22;16482;51.046;4.498;2023-06-24T10:29:51;26.10;43.60
29539;DHT22;16482;51.046;4.498;2023-06-24T10:32:19;26.10;43.50
29539;DHT22;16482;51.046;4.498;2023-06-24T10:34:46;26.10;43.40
29539;DHT22;16482;51.046;4.498;2023-06-24T10:37:26;26.10;43.40
29539;DHT22;16482;51.046;4.498;2023-06-24T10:40:01;26.10;43.40
29539;DHT22;16482;51.046;4.498;2023-06-24T10:42:33;26.10;43.60
29539;DHT22;16482;51.046;4.498;2023-06-24T10:45:16;26.10;43.70
29539;DHT22;16482;51.046;4.498;2023-06-24T10:47:45;26.10;43.20
29539;DHT22;16482;51.046;4.498;2023-06-24T10:50:18;26.10;43.20
29539;DHT22;16482;51.046;4.498;2023-06-24T10:52:45;26.10;43.30
29539;DHT22;16482;51.046;4.498;2023-06-24T10:55:18;26.10;43.30
29539;DHT22;16482;51.046;4.498;2023-06-24T10:57:45;26.20;43.20
29539;DHT22;16482;51.046;4.498;2023-06-24T11:00:12;26.30;43.20
29539;DHT22;16482;51.046;4.498;2023-06-24T11:02:38;26.30;43.10
29539;DHT22;16482;51.046;4.498;2023-06-24T11:05:04;26.30;43.10
29539;DHT22;16482;51.046;4.498;2023-06-24T11:07:34;26.40;42.90
29539;DHT22;16482;51.046;4.498;2023-06-24T11:10:09;26.40;42.80
29539;DHT22;16482;51.046;4.498;2023-06-24T11:12:37;26.40;42.70
29539;DHT22;16482;51.046;4.498;2023-06-24T11:15:08;26.40;42.60
29539;DHT22;16482;51.046;4.498;2023-06-24T11:17:37;26.40;42.60
29539;DHT22;16482;51.046;4.498;2023-06-24T11:20:08;26.40;42.60
29539;DHT22;16482;51.046;4.498;2023-06-24T11:22:35;26.40;42.20
29539;DHT22;16482;51.046;4.498;2023-06-24T11:25:01;26.40;42.20
29539;DHT22;16482;51.046;4.498;2023-06-24T11:27:45;26.40;42.30
29539;DHT22;16482;51.046;4.498;2023-06-24T11:30:12;26.50;42.00
29539;DHT22;16482;51.046;4.498;2023-06-24T11:32:39;26.40;42.00
29539;DHT22;16482;51.046;4.498;2023-06-24T11:35:07;26.40;41.90
29539;DHT22;16482;51.046;4.498;2023-06-24T11:37:34;26.50;41.90
29539;DHT22;16482;51.046;4.498;2023-06-24T11:40:07;26.40;41.80
29539;DHT22;16482;51.046;4.498;2023-06-24T11:42:40;26.50;41.80
29539;DHT22;16482;51.046;4.498;2023-06-24T11:45:08;26.50;41.80
29539;DHT22;16482;51.046;4.498;2023-06-24T11:47:36;26.50;41.70
29539;DHT22;16482;51.046;4.498;2023-06-24T11:50:03;26.50;41.80
29539;DHT22;16482;51.046;4.498;2023-06-24T11:52:41;26.50;41.60
29539;DHT22;16482;51.046;4.498;2023-06-24T11:57:56;26.50;41.70
29539;DHT22;16482;51.046;4.498;2023-06-24T12:00:23;26.60;41.60
29539;DHT22;16482;51.046;4.498;2023-06-24T12:03:15;26.50;41.60
29539;DHT22;16482;51.046;4.498;2023-06-24T12:05:41;26.50;41.70
29539;DHT22;16482;51.046;4.498;2023-06-24T12:08:24;26.50;41.60
29539;DHT22;16482;51.046;4.498;2023-06-24T12:10:50;26.60;41.80
29539;DHT22;16482;51.046;4.498;2023-06-24T12:13:15;26.50;41.70
29539;DHT22;16482;51.046;4.498;2023-06-24T12:15:41;26.50;41.70
29539;DHT22;16482;51.046;4.498;2023-06-24T12:18:08;26.50;41.70
29539;DHT22;16482;51.046;4.498;2023-06-24T12:20:34;26.50;41.70
29539;DHT22;16482;51.046;4.498;2023-06-24T12:23:03;26.50;41.70
29539;DHT22;16482;51.046;4.498;2023-06-24T12:25:29;26.60;41.80
29539;DHT22;16482;51.046;4.498;2023-06-24T12:27:55;26.50;41.80
29539;DHT22;16482;51.046;4.498;2023-06-24T12:30:21;26.50;41.80
29539;DHT22;16482;51.046;4.498;2023-06-24T12:32:50;26.50;41.80
29539;DHT22;16482;51.046;4.498;2023-06-24T12:35:16;26.50;41.80
29539;DHT22;16482;51.046;4.498;2023-06-24T12:37:42;26.50;41.80
29539;DHT22;16482;51.046;4.498;2023-06-24T12:40:10;26.50;41.70
29539;DHT22;16482;51.046;4.498;2023-06-24T12:42:36;26.50;41.70
29539;DHT22;16482;51.046;4.498;2023-06-24T12:45:02;26.50;41.70
29539;DHT22;16482;51.046;4.498;2023-06-24T12:47:28;26.50;41.40
29539;DHT22;16482;51.046;4.498;2023-06-24T12:49:54;26.50;41.50
29539;DHT22;16482;51.046;4.498;2023-06-24T12:52:20;26.50;41.40
29539;DHT22;16482;51.046;4.498;2023-06-24T12:54:46;26.50;41.40
29539;DHT22;16482;51.046;4.498;2023-06-24T12:57:12;26.50;41.60
29539;DHT22;16482;51.046;4.498;2023-06-24T12:59:37;26.50;41.70
29539;DHT22;16482;51.046;4.498;2023-06-24T13:02:05;26.50;41.60
29539;DHT22;16482;51.046;4.498;2023-06-24T13:04:33;26.50;41.50
29539;DHT22;16482;51.046;4.498;2023-06-24T13:06:59;26.50;41.50
29539;DHT22;16482;51.046;4.498;2023-06-24T13:09:25;26.60;41.40
29539;DHT22;16482;51.046;4.498;2023-06-24T13:11:51;26.50;41.50
29539;DHT22;16482;51.046;4.498;2023-06-24T13:14:17;26.50;41.40
29539;DHT22;16482;51.046;4.498;2023-06-24T13:16:43;26.50;41.40
29539;DHT22;16482;51.046;4.498;2023-06-24T13:19:09;26.50;41.40
29539;DHT22;16482;51.046;4.498;2023-06-24T13:21:34;26.50;41.40
29539;DHT22;16482;51.046;4.498;2023-06-24T13:24:04;26.60;41.40
29539;DHT22;16482;51.046;4.498;2023-06-24T13:26:30;26.60;41.50
29539;DHT22;16482;51.046;4.498;2023-06-24T13:28:56;26.50;41.50
29539;DHT22;16482;51.046;4.498;2023-06-24T13:31:25;26.60;41.60
29539;DHT22;16482;51.046;4.498;2023-06-24T13:33:51;26.60;41.60
29539;DHT22;16482;51.046;4.498;2023-06-24T13:36:36;26.60;41.50
29539;DHT22;16482;51.046;4.498;2023-06-24T13:39:09;26.60;41.60
29539;DHT22;16482;51.046;4.498;2023-06-24T13:42:06;26.60;41.80
29539;DHT22;16482;51.046;4.498;2023-06-24T13:44:32;26.60;41.50
29539;DHT22;16482;51.046;4.498;2023-06-24T13:46:58;26.60;41.30
29539;DHT22;16482;51.046;4.498;2023-06-24T13:49:24;26.60;41.20
29539;DHT22;16482;51.046;4.498;2023-06-24T13:51:51;26.60;41.30
29539;DHT22;16482;51.046;4.498;2023-06-24T13:54:17;26.60;41.40
29539;DHT22;16482;51.046;4.498;2023-06-24T13:56:44;26.60;41.50
29539;DHT22;16482;51.046;4.498;2023-06-24T13:59:22;26.60;41.60
29539;DHT22;16482;51.046;4.498;2023-06-24T14:04:47;26.60;41.50
29539;DHT22;16482;51.046;4.498;2023-06-24T14:10:52;26.60;41.50
29539;DHT22;16482;51.046;4.498;2023-06-24T14:14:05;26.60;41.60
29539;DHT22;16482;51.046;4.498;2023-06-24T14:16:31;26.60;41.60
29539;DHT22;16482;51.046;4.498;2023-06-24T14:18:57;26.60;41.70
29539;DHT22;16482;51.046;4.498;2023-06-24T14:21:23;26.60;41.70
29539;DHT22;16482;51.046;4.498;2023-06-24T14:23:50;26.60;41.60
29539;DHT22;16482;51.046;4.498;2023-06-24T14:26:18;26.60;41.70
29539;DHT22;16482;51.046;4.498;2023-06-24T14:28:47;26.60;41.50
29539;DHT22;16482;51.046;4.498;2023-06-24T14:31:20;26.60;41.60
29539;DHT22;16482;51.046;4.498;2023-06-24T14:33:54;26.60;41.60
29539;DHT22;16482;51.046;4.498;2023-06-24T14:36:20;26.70;41.60
29539;DHT22;16482;51.046;4.498;2023-06-24T14:38:48;26.60;41.50
29539;DHT22;16482;51.046;4.498;2023-06-24T14:41:17;26.60;41.50
29539;DHT22;16482;51.046;4.498;2023-06-24T14:43:46;26.60;41.40
29539;DHT22;16482;51.046;4.498;2023-06-24T14:46:14;26.70;41.50
29539;DHT22;16482;51.046;4.498;2023-06-24T14:48:49;26.70;41.50
29539;DHT22;16482;51.046;4.498;2023-06-24T14:51:15;26.70;41.50
29539;DHT22;16482;51.046;4.498;2023-06-24T14:53:48;26.70;41.60
29539;DHT22;16482;51.046;4.498;2023-06-24T14:56:17;26.70;41.50
29539;DHT22;16482;51.046;4.498;2023-06-24T14:58:51;26.70;41.50
29539;DHT22;16482;51.046;4.498;2023-06-24T15:01:20;26.60;41.40
29539;DHT22;16482;51.046;4.498;2023-06-24T15:03:46;26.70;41.60
29539;DHT22;16482;51.046;4.498;2023-06-24T15:06:19;26.60;41.60
29539;DHT22;16482;51.046;4.498;2023-06-24T15:08:45;26.70;41.50
29539;DHT22;16482;51.046;4.498;2023-06-24T15:11:13;26.70;41.40
29539;DHT22;16482;51.046;4.498;2023-06-24T15:13:57;26.70;41.40
29539;DHT22;16482;51.046;4.498;2023-06-24T15:16:23;26.70;41.30
29539;DHT22;16482;51.046;4.498;2023-06-24T15:18:49;26.70;41.40
29539;DHT22;16482;51.046;4.498;2023-06-24T15:21:18;26.70;41.30
29539;DHT22;16482;51.046;4.498;2023-06-24T15:23:47;26.70;41.30
29539;DHT22;16482;51.046;4.498;2023-06-24T15:26:15;26.70;41.30
29539;DHT22;16482;51.046;4.498;2023-06-24T15:28:46;26.70;41.20
29539;DHT22;16482;51.046;4.498;2023-06-24T15:31:20;26.70;41.20
29539;DHT22;16482;51.046;4.498;2023-06-24T15:33:56;26.70;41.20
29539;DHT22;16482;51.046;4.498;2023-06-24T15:36:24;26.70;40.80
29539;DHT22;16482;51.046;4.498;2023-06-24T15:38:53;26.70;40.60
29539;DHT22;16482;51.046;4.498;2023-06-24T15:41:19;26.70;40.50
29539;DHT22;16482;51.046;4.498;2023-06-24T15:43:47;26.70;40.80
29539;DHT22;16482;51.046;4.498;2023-06-24T15:46:16;26.70;41.10
29539;DHT22;16482;51.046;4.498;2023-06-24T15:48:44;26.70;41.30
29539;DHT22;16482;51.046;4.498;2023-06-24T15:51:20;26.70;41.50
29539;DHT22;16482;51.046;4.498;2023-06-24T15:53:46;26.80;41.50
29539;DHT22;16482;51.046;4.498;2023-06-24T15:56:15;26.80;41.70
29539;DHT22;16482;51.046;4.498;2023-06-24T15:58:46;26.80;41.30
29539;DHT22;16482;51.046;4.498;2023-06-24T16:01:20;26.80;41.30
29539;DHT22;16482;51.046;4.498;2023-06-24T16:03:46;26.80;41.20